Dufftown, United Kingdom
Current Conditions -  °F | °C
As of 10:50 AM on Sunday 21 Dec 2014 (Local Time) from EGQS Reporting Station
Broken Clouds Broken Clouds  
Wind Chill: 50°   Ceiling: 7000
Heat Index: 50°   Visibility: 6mi
Dew Point: 45°   Wind: 17mph
Humidity: 82%   Direction: 250°WSW
Pressure: 29.62"   Gusts: NA
Location:  57.43°N, 3.13°W
Report Text: EGQS 211050Z 25015KT 9999 FEW026 BKN070 10/07 Q1003 BLU NOSIG
Loading
Personal Weather Stations






























Interactive Weather Map New forecast layout! Learn more

10-Day Weather Forecast

Advertisements
Track Severe Weather on mobile